Time;durP1;ratioP1;P1;durP2;ratioP2;P2;SDS_P1;SDS_P2;PMS_P1;PMS_P2;Temp;Humidity;BMP_temperature;BMP_pressure;BME280_temperature;BME280_humidity;BME280_pressure;Samples;Min_cycle;Max_cycle;Signal;HPM_P1;HPM_P2
2023/06/16 00:00:35;;;;;;;4.90;3.63;;;;;;;18.25;57.75;101778.38;4845114;29;20041;-70
2023/06/16 00:03:01;;;;;;;5.35;3.63;;;;;;;18.22;57.94;101775.72;4844566;29;20512;-70
2023/06/16 00:05:28;;;;;;;7.57;4.15;;;;;;;18.16;57.92;101775.69;4845138;29;20183;-69
2023/06/16 00:07:54;;;;;;;5.78;3.95;;;;;;;18.13;57.42;101766.84;4843769;29;20026;-71
2023/06/16 00:10:19;;;;;;;5.30;3.95;;;;;;;18.13;57.86;101766.84;4845580;29;20044;-70
2023/06/16 00:12:44;;;;;;;4.50;3.35;;;;;;;18.10;57.60;101770.34;4845179;29;20025;-71
2023/06/16 00:15:10;;;;;;;4.95;3.70;;;;;;;18.10;57.75;101767.69;4845548;29;20042;-70
2023/06/16 00:17:44;;;;;;;5.60;3.85;;;;;;;18.05;57.68;101764.16;4844539;29;20422;-70
2023/06/16 00:20:10;;;;;;;5.70;3.85;;;;;;;18.02;57.59;101765.00;4844833;29;20125;-70
2023/06/16 00:22:35;;;;;;;5.63;4.15;;;;;;;17.79;59.93;101767.44;4843537;29;20082;-71
2023/06/16 00:25:01;;;;;;;5.60;4.10;;;;;;;17.60;60.28;101760.22;4844412;29;20037;-71
2023/06/16 00:27:26;;;;;;;5.07;3.92;;;;;;;17.38;61.56;101762.66;4844606;29;20086;-70
2023/06/16 00:29:51;;;;;;;5.03;4.00;;;;;;;17.07;62.29;101759.69;4844496;29;20041;-71
2023/06/16 00:32:16;;;;;;;4.75;4.10;;;;;;;16.78;63.39;101773.34;4843349;29;20429;-70
2023/06/16 00:34:42;;;;;;;7.38;4.35;;;;;;;16.75;63.53;101762.78;4842258;29;20038;-71
2023/06/16 00:37:07;;;;;;;7.35;4.63;;;;;;;16.80;62.97;101766.38;4842440;29;20032;-71
2023/06/16 00:39:33;;;;;;;8.00;4.85;;;;;;;16.91;63.05;101773.53;4842944;29;20391;-70
2023/06/16 00:41:58;;;;;;;5.97;5.18;;;;;;;16.75;63.32;101764.53;4843900;29;20048;-70
2023/06/16 00:44:23;;;;;;;8.32;5.00;;;;;;;16.81;63.05;101768.09;4842444;29;20033;-70
2023/06/16 00:46:49;;;;;;;10.52;4.78;;;;;;;16.89;62.82;101767.34;4841655;29;20454;-70
2023/06/16 00:49:15;;;;;;;6.55;4.85;;;;;;;16.93;62.19;101775.34;4840595;29;20038;-70
2023/06/16 00:51:42;;;;;;;5.55;4.53;;;;;;;16.94;61.83;101768.31;4840825;29;20029;-70
2023/06/16 00:54:07;;;;;;;5.45;4.70;;;;;;;16.97;61.96;101763.94;4840409;29;20033;-70
2023/06/16 00:56:34;;;;;;;6.80;4.75;;;;;;;16.96;61.79;101766.56;4844081;29;20406;-71
2023/06/16 00:59:00;;;;;;;5.70;4.57;;;;;;;16.98;61.65;101760.47;4841078;29;20034;-70
2023/06/16 01:01:26;;;;;;;5.63;4.93;;;;;;;17.01;61.23;101759.63;4844544;29;20454;-71
2023/06/16 01:03:53;;;;;;;5.38;4.68;;;;;;;17.01;61.24;101759.63;4844136;29;20038;-71
2023/06/16 01:06:29;;;;;;;5.47;4.60;;;;;;;17.07;60.42;101757.03;4844220;29;20401;-70
2023/06/16 01:09:03;;;;;;;5.93;4.90;;;;;;;17.07;61.30;101753.53;4844419;29;20122;-70
2023/06/16 01:11:47;;;;;;;6.18;4.60;;;;;;;16.82;63.09;101753.22;4843947;29;20117;-71
2023/06/16 01:14:37;;;;;;;5.75;4.60;;;;;;;16.49;64.03;101746.66;4844302;29;20054;-71
2023/06/16 01:17:05;;;;;;;5.80;4.90;;;;;;;16.49;64.13;101739.63;4843857;29;20166;-70
2023/06/16 01:19:43;;;;;;;7.00;5.03;;;;;;;16.53;62.85;101751.09;4844308;29;20059;-70
2023/06/16 01:22:31;;;;;;;7.30;5.38;;;;;;;16.59;63.32;101752.94;4844211;29;20026;-71
2023/06/16 01:25:03;;;;;;;7.22;5.63;;;;;;;16.36;64.23;101748.22;4843917;29;20529;-70
2023/06/16 01:27:29;;;;;;;5.85;5.20;;;;;;;16.15;64.56;101754.06;4842940;29;20074;-70
2023/06/16 01:29:56;;;;;;;6.78;5.15;;;;;;;16.10;65.03;101747.84;4840464;29;20462;-69
2023/06/16 01:32:25;;;;;;;10.07;5.60;;;;;;;16.16;64.10;101743.56;4840753;29;20061;-70
2023/06/16 01:34:51;;;;;;;7.30;5.20;;;;;;;16.23;63.56;101748.91;4841156;29;20060;-70
2023/06/16 01:37:18;;;;;;;7.00;4.82;;;;;;;16.29;62.78;101742.00;4840709;29;20067;-70
2023/06/16 01:39:45;;;;;;;5.80;4.85;;;;;;;16.32;62.70;101746.41;4841786;29;20497;-70
2023/06/16 01:42:12;;;;;;;6.32;5.07;;;;;;;16.33;63.31;101740.28;4842326;29;20060;-70
2023/06/16 01:44:40;;;;;;;5.90;5.30;;;;;;;16.29;63.89;101743.72;4841360;29;20042;-70
2023/06/16 01:47:05;;;;;;;7.15;5.88;;;;;;;16.20;64.22;101741.84;4841762;29;20030;-70
2023/06/16 01:49:32;;;;;;;7.57;5.82;;;;;;;15.90;64.37;101740.53;4840989;29;20120;-70
2023/06/16 01:51:57;;;;;;;6.57;5.65;;;;;;;15.63;65.77;101747.06;4840062;29;20029;-70
2023/06/16 01:54:23;;;;;;;7.45;5.88;;;;;;;15.62;65.12;101737.41;4840962;29;20037;-70
2023/06/16 01:56:48;;;;;;;6.25;5.65;;;;;;;15.68;65.22;101736.63;4841887;29;20025;-70
2023/06/16 01:59:13;;;;;;;7.85;5.70;;;;;;;15.72;64.16;101738.44;4843491;29;20038;-70
2023/06/16 02:01:49;;;;;;;8.02;6.18;;;;;;;15.81;64.29;101740.38;4843596;29;20030;-70
2023/06/16 02:04:19;;;;;;;8.82;6.18;;;;;;;15.79;65.16;101744.72;4843516;29;20145;-70
2023/06/16 02:06:50;;;;;;;8.45;6.22;;;;;;;15.71;65.65;101746.31;4841481;29;20050;-70
2023/06/16 02:09:17;;;;;;;6.97;6.00;;;;;;;15.67;65.57;101749.72;4841529;29;20447;-70
2023/06/16 02:11:44;;;;;;;6.97;6.15;;;;;;;15.68;65.31;101751.50;4842871;29;20573;-70
2023/06/16 02:14:10;;;;;;;7.25;5.80;;;;;;;15.73;64.38;101750.72;4843557;29;20030;-70
2023/06/16 02:16:42;;;;;;;6.22;5.22;;;;;;;15.78;64.20;101749.09;4842083;29;20026;-70
2023/06/16 02:19:07;;;;;;;5.90;5.30;;;;;;;15.80;64.29;101744.75;4844028;29;20102;-70
2023/06/16 02:21:33;;;;;;;8.23;5.57;;;;;;;15.78;63.92;101743.81;4843584;29;20045;-70
2023/06/16 02:23:58;;;;;;;7.60;5.38;;;;;;;15.80;63.76;101741.22;4842272;29;20038;-70
2023/06/16 02:26:24;;;;;;;8.43;5.47;;;;;;;15.75;64.51;101738.50;4842219;29;20141;-70
2023/06/16 02:28:50;;;;;;;6.93;5.60;;;;;;;15.75;64.45;101743.75;4842387;29;20049;-70
2023/06/16 02:31:18;;;;;;;6.00;5.35;;;;;;;15.76;64.32;101737.66;4841890;29;20030;-70
2023/06/16 02:33:44;;;;;;;6.70;5.30;;;;;;;15.76;63.77;101742.03;4840952;29;20508;-70
2023/06/16 02:36:10;;;;;;;7.22;6.18;;;;;;;15.71;65.36;101751.56;4839536;29;20037;-70
2023/06/16 02:38:36;;;;;;;7.57;6.07;;;;;;;15.30;66.59;101749.97;4840809;29;20554;-70
2023/06/16 02:41:01;;;;;;;7.65;6.25;;;;;;;14.90;68.01;101759.69;4841317;29;20240;-70
2023/06/16 02:43:26;;;;;;;7.63;5.93;;;;;;;14.69;69.18;101754.88;4839586;29;20078;-70
2023/06/16 02:45:52;;;;;;;8.50;6.22;;;;;;;14.55;69.71;101749.28;4840669;29;20520;-69
2023/06/16 02:48:17;;;;;;;7.00;6.28;;;;;;;14.53;69.58;101748.38;4839903;29;20481;-69
2023/06/16 02:50:42;;;;;;;6.20;5.60;;;;;;;14.60;69.04;101755.53;4841742;29;20117;-70
2023/06/16 02:53:08;;;;;;;7.25;5.70;;;;;;;14.62;69.50;101753.84;4841935;29;20045;-70
2023/06/16 02:55:35;;;;;;;7.88;5.80;;;;;;;14.75;68.14;101749.75;4842044;29;20433;-70
2023/06/16 02:58:00;;;;;;;8.00;5.72;;;;;;;14.83;67.43;101750.81;4841949;29;20062;-70
2023/06/16 03:00:25;;;;;;;7.10;5.70;;;;;;;14.89;67.55;101750.06;4844829;29;20064;-70
2023/06/16 03:02:51;;;;;;;7.15;6.05;;;;;;;14.93;66.87;101746.63;4845524;29;20029;-70
2023/06/16 03:05:18;;;;;;;6.55;5.80;;;;;;;14.92;66.90;101752.75;4842809;29;20025;-70
2023/06/16 03:07:44;;;;;;;6.43;5.57;;;;;;;14.91;66.62;101753.59;4842887;29;20057;-70
2023/06/16 03:10:10;;;;;;;6.20;5.60;;;;;;;14.89;66.35;101750.06;4844528;29;20060;-70
2023/06/16 03:12:35;;;;;;;6.38;5.60;;;;;;;14.89;66.14;101755.31;4844251;29;20493;-70
2023/06/16 03:15:01;;;;;;;7.22;5.97;;;;;;;14.89;66.11;101752.69;4844186;29;20030;-70
2023/06/16 03:17:26;;;;;;;6.65;6.05;;;;;;;14.90;66.12;101757.06;4844971;29;20034;-70
2023/06/16 03:19:51;;;;;;;6.72;5.65;;;;;;;14.89;66.14;101753.56;4844880;29;20116;-70
2023/06/16 03:22:17;;;;;;;7.57;5.50;;;;;;;14.87;66.47;101749.13;4843056;29;20025;-70
2023/06/16 03:24:43;;;;;;;6.70;5.72;;;;;;;14.85;66.76;101751.72;4843330;29;20643;-71
2023/06/16 03:27:12;;;;;;;7.53;5.75;;;;;;;14.83;66.29;101750.81;4846169;29;20127;-70
2023/06/16 03:29:38;;;;;;;6.63;5.90;;;;;;;14.81;66.53;101755.13;4841416;29;21048;-70
2023/06/16 03:32:05;;;;;;;7.18;5.70;;;;;;;14.79;66.93;101751.59;4846164;29;20382;-70
2023/06/16 03:34:30;;;;;;;6.40;5.70;;;;;;;14.76;67.80;101752.41;4841741;29;20033;-70
2023/06/16 03:36:56;;;;;;;7.38;5.50;;;;;;;14.75;66.71;101753.25;4845687;29;20785;-70
2023/06/16 03:39:21;;;;;;;6.43;5.68;;;;;;;14.75;67.04;101755.88;4844935;29;20025;-70
2023/06/16 03:41:47;;;;;;;8.00;6.20;;;;;;;14.71;67.80;101753.16;4844379;29;20036;-70
2023/06/16 03:44:12;;;;;;;7.20;6.30;;;;;;;14.62;68.08;101761.72;4842426;29;20022;-70
2023/06/16 03:46:37;;;;;;;6.97;6.05;;;;;;;14.62;68.13;101758.22;4844392;29;20477;-70
2023/06/16 03:49:02;;;;;;;7.68;6.38;;;;;;;14.62;68.31;101766.97;4844247;29;20046;-70
2023/06/16 03:51:28;;;;;;;7.53;5.97;;;;;;;14.58;68.49;101759.84;4842123;29;20116;-70
2023/06/16 03:53:53;;;;;;;8.52;6.32;;;;;;;14.51;69.24;101760.56;4843202;29;20283;-70
2023/06/16 03:56:19;;;;;;;8.82;6.50;;;;;;;14.47;69.53;101758.72;4842709;29;20100;-70
2023/06/16 03:58:44;;;;;;;6.93;6.15;;;;;;;14.49;68.89;101759.66;4840932;29;20497;-70
2023/06/16 04:01:10;;;;;;;7.97;6.13;;;;;;;14.51;68.98;101753.59;4843924;29;20030;-70
2023/06/16 04:03:35;;;;;;;6.30;5.70;;;;;;;14.51;68.42;101763.19;4844919;29;20029;-70
2023/06/16 04:06:01;;;;;;;7.40;6.60;;;;;;;14.47;69.14;101763.97;4844359;29;20071;-70
2023/06/16 04:08:27;;;;;;;7.78;6.05;;;;;;;14.43;69.40;101766.53;4845262;29;20561;-70
2023/06/16 04:10:57;;;;;;;7.45;6.25;;;;;;;14.42;69.61;101764.78;4842215;29;20920;-70
2023/06/16 04:13:23;;;;;;;6.93;5.90;;;;;;;14.41;69.86;101773.50;4845671;29;20033;-70
2023/06/16 04:15:48;;;;;;;6.93;5.88;;;;;;;14.41;69.54;101773.50;4846801;29;20049;-70
2023/06/16 04:18:13;;;;;;;7.30;5.75;;;;;;;14.39;69.68;101769.06;4845350;29;20378;-70
2023/06/16 04:20:39;;;;;;;8.20;6.07;;;;;;;14.37;69.52;101768.16;4844227;29;20045;-70
2023/06/16 04:23:06;;;;;;;7.30;6.00;;;;;;;14.37;69.68;101771.63;4843187;29;20037;-70
2023/06/16 04:25:32;;;;;;;7.45;6.05;;;;;;;14.38;70.24;101772.50;4840101;29;20038;-70
2023/06/16 04:27:58;;;;;;;6.97;6.07;;;;;;;14.41;69.71;101773.50;4841882;29;20034;-70
2023/06/16 04:30:24;;;;;;;7.22;6.13;;;;;;;14.40;70.12;101774.31;4840501;29;20509;-70
2023/06/16 04:32:51;;;;;;;6.80;6.10;;;;;;;14.41;70.32;101773.50;4842410;29;20058;-70
2023/06/16 04:35:16;;;;;;;7.30;6.50;;;;;;;14.39;70.54;101772.53;4839820;29;20109;-70
2023/06/16 04:37:41;;;;;;;6.95;6.25;;;;;;;14.40;70.89;101774.31;4843971;29;20034;-70
2023/06/16 04:40:08;;;;;;;7.18;6.03;;;;;;;14.42;70.93;101783.13;4841881;29;20055;-71
2023/06/16 04:42:34;;;;;;;7.13;6.43;;;;;;;14.42;71.40;101777.88;4842271;29;20362;-70
2023/06/16 04:44:59;;;;;;;7.40;6.47;;;;;;;14.41;71.41;101776.09;4842059;29;20688;-70
2023/06/16 04:47:25;;;;;;;7.47;6.25;;;;;;;14.46;71.32;101783.19;4842550;29;20422;-70
2023/06/16 04:49:50;;;;;;;7.53;6.57;;;;;;;14.46;71.55;101783.19;4840599;29;20038;-69
2023/06/16 04:52:15;;;;;;;7.15;6.43;;;;;;;14.46;71.67;101783.19;4842879;29;20550;-70
2023/06/16 04:54:41;;;;;;;8.00;6.68;;;;;;;14.48;71.88;101782.34;4843242;29;20033;-70
2023/06/16 04:57:07;;;;;;;6.93;5.95;;;;;;;14.52;71.81;101788.56;4839357;29;20074;-70
2023/06/16 04:59:32;;;;;;;7.28;6.07;;;;;;;14.52;70.75;101786.81;4838764;29;20042;-70
2023/06/16 05:01:58;;;;;;;6.65;5.95;;;;;;;14.49;71.56;101791.13;4841289;29;20029;-70
2023/06/16 05:04:23;;;;;;;6.95;6.22;;;;;;;14.56;71.42;101793.91;4843326;29;20490;-70
2023/06/16 05:06:49;;;;;;;6.95;6.25;;;;;;;14.60;71.67;101792.25;4844723;29;20054;-70
2023/06/16 05:09:14;;;;;;;7.03;6.32;;;;;;;14.63;71.85;101800.22;4840536;29;20060;-70
2023/06/16 05:11:40;;;;;;;6.90;6.15;;;;;;;14.66;71.98;101791.56;4839900;29;20034;-70
2023/06/16 05:14:05;;;;;;;7.97;6.30;;;;;;;14.68;72.12;101785.47;4840214;29;20402;-70
2023/06/16 05:16:31;;;;;;;7.53;6.60;;;;;;;14.72;72.44;101789.06;4841318;29;20061;-70
2023/06/16 05:18:56;;;;;;;9.00;6.28;;;;;;;14.74;73.09;101795.19;4844192;29;20021;-70
2023/06/16 05:21:25;;;;;;;6.97;6.30;;;;;;;14.77;73.05;101792.63;4844286;29;20041;-70
2023/06/16 05:23:52;;;;;;;7.03;6.32;;;;;;;14.82;72.95;101798.00;4837895;29;20030;-70
2023/06/16 05:26:20;;;;;;;9.20;7.38;;;;;;;14.86;72.40;101799.81;4840624;29;20447;-70
2023/06/16 05:28:45;;;;;;;8.00;6.82;;;;;;;14.94;71.98;101800.88;4837295;29;20516;-70
2023/06/16 05:31:10;;;;;;;7.68;6.40;;;;;;;15.00;72.20;101798.38;4840347;29;20029;-70
2023/06/16 05:33:36;;;;;;;8.75;7.03;;;;;;;15.08;72.19;101801.19;4839999;29;20032;-70
2023/06/16 05:36:01;;;;;;;7.75;6.95;;;;;;;15.12;72.45;101801.28;4841847;29;20033;-70
2023/06/16 05:38:26;;;;;;;7.88;7.07;;;;;;;15.17;71.40;101805.72;4842227;29;20033;-70
2023/06/16 05:40:52;;;;;;;7.55;6.72;;;;;;;15.21;70.33;101807.56;4840301;29;20094;-70
2023/06/16 05:43:17;;;;;;;8.27;7.38;;;;;;;15.27;72.02;101803.31;4839970;29;20473;-70
2023/06/16 05:45:42;;;;;;;8.30;7.45;;;;;;;15.33;72.02;101802.53;4838740;29;20065;-70
2023/06/16 05:48:08;;;;;;;9.93;7.82;;;;;;;15.40;71.27;101808.81;4837725;29;20061;-70
2023/06/16 05:50:33;;;;;;;10.10;8.30;;;;;;;15.48;70.88;101802.84;4840901;29;20034;-70
2023/06/16 05:52:58;;;;;;;9.25;8.20;;;;;;;15.57;70.84;101803.84;4838887;29;20036;-68
2023/06/16 05:55:24;;;;;;;8.98;7.35;;;;;;;15.68;68.63;101797.06;4838605;29;20033;-67
2023/06/16 05:57:49;;;;;;;8.18;6.80;;;;;;;15.80;69.00;101805.19;4839138;29;20037;-67
2023/06/16 06:00:15;;;;;;;9.73;8.43;;;;;;;15.93;69.53;101806.31;4840958;29;20514;-67
2023/06/16 06:02:41;;;;;;;8.30;7.30;;;;;;;16.02;67.31;101813.44;4839396;29;20082;-67
2023/06/16 06:05:06;;;;;;;10.18;8.20;;;;;;;16.12;70.44;101804.84;4840487;29;20581;-67
2023/06/16 06:07:34;;;;;;;8.75;7.88;;;;;;;16.19;69.24;101807.56;4895417;23;20057;-96
2023/06/16 06:10:00;;;;;;;9.23;8.20;;;;;;;16.27;68.76;101805.97;4844845;29;20625;-96
2023/06/16 06:12:25;;;;;;;8.55;7.75;;;;;;;16.37;66.60;101801.72;4843877;29;20112;-96
2023/06/16 06:14:51;;;;;;;8.85;7.95;;;;;;;16.50;68.03;101808.94;4846809;29;20033;-96
2023/06/16 06:17:16;;;;;;;9.38;7.85;;;;;;;16.64;66.08;101807.38;4846878;29;20030;-96
2023/06/16 06:19:43;;;;;;;9.70;7.70;;;;;;;16.76;64.29;101806.66;4852106;29;20031;-94
2023/06/16 06:22:08;;;;;;;9.32;8.02;;;;;;;16.89;65.24;101810.38;4853676;29;20033;-96
2023/06/16 06:24:34;;;;;;;9.68;8.65;;;;;;;17.00;65.01;101821.94;4845597;29;20034;-96
2023/06/16 06:26:59;;;;;;;9.80;8.90;;;;;;;17.13;65.09;101822.06;4849726;29;20499;-96
2023/06/16 06:29:32;;;;;;;11.23;8.48;;;;;;;17.28;65.71;101822.28;4849880;29;20544;-96
2023/06/16 06:32:00;;;;;;;10.07;8.50;;;;;;;17.32;66.86;101824.06;4836242;29;20035;-96
2023/06/16 06:34:26;;;;;;;8.38;6.88;;;;;;;17.44;64.52;101819.78;4844944;29;20031;-96
2023/06/16 06:36:51;;;;;;;9.85;8.40;;;;;;;17.56;65.22;101823.44;4831093;29;20056;-96
2023/06/16 06:39:20;;;;;;;9.98;8.95;;;;;;;17.68;63.73;101821.78;4843288;29;20034;-96
2023/06/16 06:41:46;;;;;;;11.93;8.60;;;;;;;17.83;63.84;101826.31;4842940;29;20030;-96
2023/06/16 06:44:14;;;;;;;9.63;8.70;;;;;;;17.98;64.37;101825.63;4828708;29;20046;-96
2023/06/16 06:46:40;;;;;;;9.27;8.27;;;;;;;18.13;65.20;101830.13;4840708;29;20037;-96
2023/06/16 06:49:05;;;;;;;9.88;8.73;;;;;;;18.19;62.10;101820.53;4845699;29;20059;-96
2023/06/16 06:51:33;;;;;;;9.90;7.65;;;;;;;18.28;60.69;101822.34;4861130;29;20515;-96
2023/06/16 06:53:59;;;;;;;9.45;7.20;;;;;;;18.41;61.94;101828.59;4851322;29;20018;-96
2023/06/16 06:56:25;;;;;;;7.00;5.93;;;;;;;18.60;63.32;101821.69;4865226;29;20030;-96
2023/06/16 06:58:54;;;;;;;7.47;6.60;;;;;;;18.74;59.56;101829.66;4851380;29;20022;-96
2023/06/16 07:01:20;;;;;;;9.05;6.55;;;;;;;18.80;58.84;101827.09;4851636;29;20034;-96
2023/06/16 07:03:45;;;;;;;8.57;5.57;;;;;;;18.88;57.30;101835.94;4865086;23;20509;-67
2023/06/16 07:06:10;;;;;;;6.90;5.53;;;;;;;18.98;55.29;101838.66;4849777;29;20037;-66
2023/06/16 07:08:36;;;;;;;8.00;5.30;;;;;;;19.13;53.11;101836.06;4833028;29;20691;-66
2023/06/16 07:11:01;;;;;;;8.55;5.80;;;;;;;19.25;56.39;101837.88;4832199;29;20056;-67
2023/06/16 07:13:26;;;;;;;8.02;5.13;;;;;;;19.31;54.95;101837.91;4832724;29;20409;-67
2023/06/16 07:15:52;;;;;;;6.60;5.90;;;;;;;19.37;50.98;101839.69;4832192;29;20041;-66
2023/06/16 07:18:17;;;;;;;6.72;5.53;;;;;;;19.45;55.01;101841.47;4830716;29;20120;-66
2023/06/16 07:20:42;;;;;;;9.65;6.00;;;;;;;19.57;52.92;101840.59;4833240;29;20065;-66
2023/06/16 07:23:08;;;;;;;7.72;5.75;;;;;;;19.75;53.64;101841.50;4831907;29;20038;-66
2023/06/16 07:25:36;;;;;;;6.95;6.22;;;;;;;19.82;54.12;101831.88;4831170;29;20034;-67
2023/06/16 07:28:03;;;;;;;6.60;5.80;;;;;;;19.86;49.66;101842.44;4832829;29;20117;-66
2023/06/16 07:30:31;;;;;;;7.07;5.80;;;;;;;19.91;51.36;101834.50;4830876;29;20057;-68
2023/06/16 07:32:57;;;;;;;8.23;6.40;;;;;;;19.98;48.90;101842.44;4832421;29;20026;-67
2023/06/16 07:35:22;;;;;;;8.50;6.45;;;;;;;20.11;50.65;101831.88;4830943;29;20029;-66
2023/06/16 07:37:48;;;;;;;6.40;5.80;;;;;;;20.22;50.41;101830.13;4832715;29;20038;-67
2023/06/16 07:40:13;;;;;;;6.93;6.00;;;;;;;20.23;48.83;101829.22;4830738;29;20583;-66
2023/06/16 07:42:41;;;;;;;7.07;5.30;;;;;;;20.33;48.10;101833.63;4830950;29;20038;-67
2023/06/16 07:45:07;;;;;;;9.43;5.10;;;;;;;20.48;47.50;101839.78;4830554;29;20034;-67
2023/06/16 07:47:32;;;;;;;7.30;4.80;;;;;;;20.64;48.76;101838.88;4831563;29;20037;-67
2023/06/16 07:49:57;;;;;;;6.07;5.45;;;;;;;20.84;47.74;101835.31;4830733;29;20058;-67
2023/06/16 07:52:22;;;;;;;7.05;5.10;;;;;;;21.07;48.92;101827.25;4831323;29;20036;-66
2023/06/16 07:54:48;;;;;;;8.93;5.40;;;;;;;21.15;45.35;101832.56;4830737;29;21055;-67
2023/06/16 07:57:13;;;;;;;8.23;5.75;;;;;;;21.19;44.58;101831.66;4832518;29;20075;-67
2023/06/16 07:59:38;;;;;;;7.15;5.65;;;;;;;21.30;47.79;101832.47;4829428;29;20034;-67
2023/06/16 08:02:04;;;;;;;7.30;5.95;;;;;;;21.43;46.04;101832.41;4830719;29;20030;-67
2023/06/16 08:04:29;;;;;;;5.47;4.45;;;;;;;21.51;44.17;101833.28;4831273;29;20616;-66
2023/06/16 08:06:57;;;;;;;8.60;4.72;;;;;;;21.62;41.42;101825.25;5136425;23;20183;-62
2023/06/16 08:09:23;;;;;;;4.40;3.88;;;;;;;21.79;42.84;101827.78;5126420;23;20533;-62
2023/06/16 08:14:18;;;;;;;6.55;4.60;;;;;;;21.91;41.83;101824.16;5013072;23;20057;-62
2023/06/16 08:16:43;;;;;;;5.22;4.20;;;;;;;22.05;43.94;101823.13;5080541;23;20040;-61
2023/06/16 08:19:09;;;;;;;6.05;5.43;;;;;;;22.16;42.87;101824.81;5045371;23;20420;-62
2023/06/16 08:21:34;;;;;;;7.50;5.03;;;;;;;22.16;41.43;101822.16;5014455;23;20856;-63
2023/06/16 08:24:03;;;;;;;6.63;4.93;;;;;;;22.20;40.49;101822.16;5042950;23;20092;-62
2023/06/16 08:26:29;;;;;;;6.28;4.40;;;;;;;22.39;43.69;101824.63;5032019;23;20062;-62
2023/06/16 08:28:54;;;;;;;6.22;4.47;;;;;;;22.64;39.20;101821.72;4887211;23;20507;-96
2023/06/16 08:31:22;;;;;;;7.35;4.00;;;;;;;22.64;38.31;101825.28;4865387;29;20506;-96
2023/06/16 08:33:50;;;;;;;5.68;3.63;;;;;;;22.77;40.71;101830.44;4867100;29;20029;-96
2023/06/16 08:36:20;;;;;;;4.83;4.00;;;;;;;22.93;37.95;101826.72;4846366;29;20056;-96
2023/06/16 08:38:45;;;;;;;6.35;4.68;;;;;;;22.89;37.12;101824.97;4846759;29;20125;-96
2023/06/16 08:41:16;;;;;;;6.50;4.10;;;;;;;23.13;40.69;101822.94;4850434;29;20559;-96
2023/06/16 08:43:48;;;;;;;5.32;3.67;;;;;;;23.07;39.17;101813.22;4851424;29;20148;-96
2023/06/16 08:46:15;;;;;;;4.10;3.30;;;;;;;23.25;37.98;101822.78;4841475;29;20026;-96
2023/06/16 08:48:41;;;;;;;5.43;3.42;;;;;;;23.28;35.65;101812.09;4851520;29;20101;-96
2023/06/16 08:51:16;;;;;;;6.07;3.72;;;;;;;23.41;35.49;101818.13;4850847;29;20034;-96
2023/06/16 08:53:48;;;;;;;4.78;3.63;;;;;;;23.55;36.63;101816.16;4847178;29;20535;-96
2023/06/16 08:56:17;;;;;;;6.65;3.63;;;;;;;23.67;34.19;101811.53;4844062;29;20139;-96
2023/06/16 08:58:46;;;;;;;4.55;3.50;;;;;;;23.75;36.51;101809.63;4842585;29;20036;-95
2023/06/16 09:01:17;;;;;;;;;;;;;;;23.88;35.56;101813.91;4859300;29;20503;-96
2023/06/16 09:03:47;;;;;;;5.70;3.50;;;;;;;23.96;36.33;101811.09;4852279;29;19920;-96
2023/06/16 09:06:22;;;;;;;4.85;3.42;;;;;;;24.11;37.89;101810.84;4858974;29;20026;-96
2023/06/16 09:08:52;;;;;;;7.43;3.50;;;;;;;24.27;36.01;101803.47;4843893;29;20030;-96
2023/06/16 09:11:28;;;;;;;4.18;3.20;;;;;;;24.54;37.39;101810.97;4848782;29;20756;-96
2023/06/16 09:13:54;;;;;;;4.07;3.30;;;;;;;24.68;36.37;101806.25;4846713;29;20078;-96
2023/06/16 09:16:55;;;;;;;5.43;3.88;;;;;;;24.94;37.18;101804.81;4849801;29;20025;-96
2023/06/16 09:19:23;;;;;;;5.03;3.80;;;;;;;24.97;33.65;101810.13;4840419;29;20097;-96
2023/06/16 09:22:00;;;;;;;4.35;3.38;;;;;;;25.02;35.44;101810.88;4862211;29;20037;-96
2023/06/16 09:24:31;;;;;;;4.60;3.53;;;;;;;25.14;36.47;101818.63;4848792;29;20029;-96
2023/06/16 09:26:59;;;;;;;5.25;3.50;;;;;;;25.48;38.50;101817.88;4855312;29;20033;-96
2023/06/16 09:29:37;;;;;;;4.90;3.50;;;;;;;25.58;36.44;101812.31;4852805;29;20056;-96
2023/06/16 09:32:11;;;;;;;5.60;3.40;;;;;;;25.58;36.44;101809.66;4862209;29;20061;-96
2023/06/16 09:34:43;;;;;;;7.45;3.67;;;;;;;25.58;33.29;101809.66;4861768;29;20052;-96
2023/06/16 09:37:22;;;;;;;6.20;3.50;;;;;;;25.62;34.29;101811.34;4859008;29;20037;-96
2023/06/16 09:39:47;;;;;;;4.35;2.90;;;;;;;25.76;34.22;101805.69;4863283;29;20495;-96
2023/06/16 09:42:37;;;;;;;4.43;3.17;;;;;;;25.96;34.69;101805.19;4870072;29;20040;-96
2023/06/16 09:45:11;;;;;;;3.85;3.45;;;;;;;26.30;34.70;101806.97;4873806;23;20051;-70
2023/06/16 09:47:38;;;;;;;5.38;3.40;;;;;;;26.33;32.45;101802.44;4853409;29;20033;-68
2023/06/16 09:50:06;;;;;;;4.45;3.30;;;;;;;26.24;30.92;101807.16;4853554;29;20033;-68
2023/06/16 09:52:33;;;;;;;4.10;3.30;;;;;;;26.40;31.54;101800.47;4853825;29;20076;-68
2023/06/16 09:55:00;;;;;;;6.00;3.17;;;;;;;26.54;33.60;101797.44;4853383;29;20123;-68
2023/06/16 09:57:26;;;;;;;5.22;3.35;;;;;;;26.62;31.57;101805.22;4853935;29;20029;-67
2023/06/16 09:59:52;;;;;;;4.53;2.80;;;;;;;26.73;33.24;101805.81;4853627;29;20025;-67
2023/06/16 10:02:17;;;;;;;4.78;3.25;;;;;;;26.83;30.14;101799.28;4852747;29;20124;-67
2023/06/16 10:04:44;;;;;;;4.43;3.17;;;;;;;27.11;35.26;101798.44;4852801;29;20124;-67
2023/06/16 10:09:45;;;;;;;4.55;3.08;;;;;;;26.87;31.44;101800.94;5146802;23;20031;-62
2023/06/16 10:12:12;;;;;;;3.78;3.25;;;;;;;26.98;31.91;101795.31;5005555;23;20088;-62
2023/06/16 10:14:40;;;;;;;4.60;3.35;;;;;;;27.07;31.44;101800.34;4981803;23;20037;-62
2023/06/16 10:19:46;;;;;;;5.05;3.42;;;;;;;26.99;27.64;101783.66;4344828;23;20077;-62
2023/06/16 10:22:12;;;;;;;4.47;2.92;;;;;;;26.95;27.30;101786.47;5102997;23;20062;-62
2023/06/16 10:24:39;;;;;;;4.53;3.20;;;;;;;26.81;25.87;101793.13;5225723;23;20382;-62
2023/06/16 10:29:35;;;;;;;3.88;3.38;;;;;;;26.92;28.44;101786.56;4852575;29;20064;-62
2023/06/16 10:32:07;;;;;;;4.65;3.47;;;;;;;27.27;30.78;101781.94;4852692;29;20036;-64
2023/06/16 10:34:51;;;;;;;3.92;3.13;;;;;;;27.25;28.57;101784.66;4969462;23;20062;-63
2023/06/16 10:37:21;;;;;;;4.93;3.30;;;;;;;27.43;30.21;101769.81;5189884;23;20083;-62
2023/06/16 10:39:46;;;;;;;4.03;3.63;;;;;;;27.20;25.60;101779.44;4918054;23;20101;-62
2023/06/16 10:42:13;;;;;;;4.05;3.20;;;;;;;27.35;30.31;101766.53;4994204;23;20024;-63
2023/06/16 10:44:39;;;;;;;3.50;2.90;;;;;;;27.57;30.94;101769.38;4928239;23;20066;-62
2023/06/16 10:47:05;;;;;;;3.70;3.20;;;;;;;27.71;29.61;101766.25;4877398;23;20038;-64
2023/06/16 10:49:31;;;;;;;5.82;3.60;;;;;;;27.67;25.61;101769.97;5062085;23;20072;-63
2023/06/16 10:51:59;;;;;;;22.17;4.97;;;;;;;27.23;26.16;101775.81;4980983;23;20544;-61
2023/06/16 10:54:33;;;;;;;5.05;3.15;;;;;;;27.16;27.94;101774.25;4845799;29;20094;-62
2023/06/16 10:57:08;;;;;;;4.75;3.50;;;;;;;27.38;26.57;101764.63;4844582;29;20460;-67
2023/06/16 10:59:54;;;;;;;5.15;3.33;;;;;;;27.36;26.83;101761.16;4973806;23;20068;-63
2023/06/16 11:02:33;;;;;;;4.25;3.08;;;;;;;27.53;28.41;101762.38;5039163;23;20068;31
2023/06/16 11:05:07;;;;;;;5.40;3.25;;;;;;;27.72;29.33;101758.19;5001180;23;20144;-65
2023/06/16 11:10:20;;;;;;;4.43;3.22;;;;;;;28.16;28.58;101757.59;5193910;23;20925;-64
2023/06/16 11:12:45;;;;;;;4.53;3.40;;;;;;;28.31;29.90;101756.13;5046296;23;20148;-64
2023/06/16 11:20:46;;;;;;;4.18;3.22;;;;;;;28.47;29.55;101751.09;5037176;23;1097165;31
2023/06/16 11:23:11;;;;;;;4.68;3.60;;;;;;;28.46;29.07;101744.00;5158313;23;20244;-64
2023/06/16 11:25:38;;;;;;;4.90;3.60;;;;;;;28.30;27.95;101746.38;4847404;29;20034;-64
2023/06/16 11:30:35;;;;;;;4.47;3.10;;;;;;;28.70;30.03;101749.38;5066475;23;20064;-63
2023/06/16 11:35:31;;;;;;;4.28;3.15;;;;;;;28.78;27.07;101755.34;4884204;23;20100;-64
2023/06/16 11:37:57;;;;;;;5.07;3.40;;;;;;;28.79;27.72;101747.25;4852183;29;20041;-68
2023/06/16 11:45:26;;;;;;;4.65;3.50;;;;;;;29.15;25.18;101745.81;4853949;29;20049;-63
2023/06/16 11:50:32;;;;;;;4.25;3.40;;;;;;;28.72;26.37;101739.47;4943868;23;20252;-63
2023/06/16 11:52:57;;;;;;;4.88;3.47;;;;;;;28.64;27.25;101738.91;5142970;23;20561;-65
2023/06/16 11:55:24;;;;;;;3.90;3.42;;;;;;;28.67;26.22;101734.28;5148182;23;20055;-65